| time (UTC) | temp F | wind direction | speed knots | gust knots | rain 1hr in | rain 24hr in | rain mn in | humidity % | barometer mb |
| 20260510071513 | 75 | 207 | 0.9 | 6.1 | 0.00 | 0.00 | 0.00 | 65 | 1008.9 |
| 20260510070028 | 75 | 167 | 0.9 | 3.5 | 0.00 | 0.00 | 0.00 | 63 | 1009.0 |
| 20260510064521 | 75 | 153 | 0.9 | 3.5 | 0.00 | 0.00 | 0.00 | 61 | 1009.0 |
| 20260510063004 | 76 | 196 | 0.9 | 6.1 | 0.00 | 0.00 | 0.00 | 59 | 1009.0 |
| 20260510061510 | 76 | 225 | 1.7 | 5.2 | 0.00 | 0.00 | 0.00 | 59 | 1009.0 |
| 20260510060012 | 76 | 184 | 2.6 | 5.2 | 0.00 | 0.00 | 0.00 | 60 | 1009.0 |
| 20260510054517 | 76 | 173 | 0.9 | 4.3 | 0.00 | 0.00 | 0.00 | 60 | 1008.9 |
| 20260510053028 | 76 | 159 | 1.7 | 4.3 | 0.00 | 0.00 | 0.00 | 60 | 1008.9 |
| 20260510051507 | 77 | 157 | 1.7 | 5.2 | 0.00 | 0.00 | 0.00 | 59 | 1009.0 |
| 20260510050012 | 77 | 150 | 0.9 | 5.2 | 0.00 | 0.00 | 0.00 | 58 | 1009.1 |
| 20260510044527 | 77 | 193 | 1.7 | 5.2 | 0.00 | 0.00 | 0.00 | 57 | 1009.2 |
| 20260510043020 | 78 | 149 | 1.7 | 3.5 | 0.00 | 0.00 | 0.00 | 56 | 1009.3 |
| 20260510041522 | 78 | 203 | 1.7 | 7.0 | 0.00 | 0.00 | 0.00 | 55 | 1009.3 |
| 20260510040011 | 78 | 198 | 0.9 | 6.1 | 0.00 | 0.00 | 0.00 | 54 | 1009.2 |
| 20260510034511 | 79 | 160 | 0.9 | 5.2 | 0.00 | 0.00 | 0.00 | 52 | 1009.2 |
| 20260510033014 | 79 | 207 | 1.7 | 6.1 | 0.00 | 0.00 | 0.00 | 50 | 1009.1 |
| 20260510031522 | 80 | 210 | 1.7 | 4.3 | 0.00 | 0.00 | 0.00 | 47 | 1009.1 |
| 20260510030030 | 80 | 195 | 1.7 | 4.3 | 0.00 | 0.00 | 0.00 | 45 | 1009.0 |
| 20260510024510 | 81 | 165 | 0.0 | 2.6 | 0.00 | 0.00 | 0.00 | 43 | 1009.0 |
| 20260510023012 | 82 | 169 | 0.9 | 1.7 | 0.00 | 0.00 | 0.00 | 41 | 1008.9 |
| 20260510021520 | 82 | 161 | 0.0 | 1.7 | 0.00 | 0.00 | 0.00 | 39 | 1008.8 |
| 20260510020028 | 84 | 153 | 0.9 | 3.5 | 0.00 | 0.00 | 0.00 | 37 | 1008.6 |
| 20260510014526 | 84 | 190 | 0.0 | 2.6 | 0.00 | 0.00 | 0.00 | 36 | 1008.3 |
| 20260510013026 | 85 | 161 | 0.9 | 3.5 | 0.00 | 0.00 | 0.00 | 34 | 1008.2 |
| 20260510011533 | 87 | 184 | 0.9 | 3.5 | 0.00 | 0.00 | 0.00 | 32 | 1007.9 |
| 20260510010022 | 88 | 156 | 0.9 | 4.3 | 0.00 | 0.00 | 0.00 | 30 | 1008.1 |
| 20260510004523 | 89 | 202 | 1.7 | 3.5 | 0.00 | 0.00 | 0.00 | 29 | 1008.2 |
| 20260510003027 | 90 | 177 | 1.7 | 4.3 | 0.00 | 0.00 | 0.00 | 28 | 1008.2 |
| 20260510001528 | 92 | 171 | 0.9 | 3.5 | 0.00 | 0.00 | 0.00 | 28 | 1008.2 |
| 20260510000052 | 92 | 155 | 0.9 | 4.3 | 0.00 | 0.00 | 0.00 | 26 | 1008.2 |
| 20260509234529 | 93 | 177 | 0.9 | 4.3 | 0.00 | 0.00 | 0.00 | 27 | 1008.2 |
| 20260509233028 | 94 | 212 | 1.7 | 3.5 | 0.00 | 0.00 | 0.00 | 26 | 1008.1 |
| 20260509231524 | 94 | 162 | 1.7 | 3.5 | 0.00 | 0.00 | 0.00 | 26 | 1008.3 |
| 20260509230026 | 96 | 183 | 0.9 | 2.6 | 0.00 | 0.00 | 0.00 | 24 | 1008.5 |
| 20260509224528 | 95 | 170 | 1.7 | 3.5 | 0.00 | 0.00 | 0.00 | 24 | 1008.4 |
| 20260509223028 | 95 | 75 | 1.7 | 4.3 | 0.00 | 0.00 | 0.00 | 27 | 1008.5 |
| 20260509221523 | 95 | 131 | 1.7 | 3.5 | 0.00 | 0.00 | 0.00 | 29 | 1008.6 |
| 20260509220012 | 95 | 285 | 0.9 | 6.1 | 0.00 | 0.00 | 0.00 | 25 | 1008.6 |
| 20260509214520 | 95 | 177 | 0.9 | 5.2 | 0.00 | 0.00 | 0.00 | 28 | 1008.7 |
| 20260509213021 | 95 | 236 | 1.7 | 3.5 | 0.00 | 0.00 | 0.00 | 28 | 1008.8 |
| 20260509211504 | 94 | 159 | 0.9 | 3.5 | 0.00 | 0.00 | 0.00 | 30 | 1009.1 |
| 20260509210008 | 94 | 133 | 0.9 | 4.3 | 0.00 | 0.00 | 0.00 | 28 | 1009.2 |
| 20260509204509 | 94 | 165 | 1.7 | 4.3 | 0.00 | 0.00 | 0.00 | 28 | 1009.5 |
| 20260509203029 | 94 | 216 | 0.9 | 4.3 | 0.00 | 0.00 | 0.00 | 32 | 1009.7 |
| 20260509201530 | 94 | 164 | 0.9 | 7.8 | 0.00 | 0.00 | 0.00 | 32 | 1009.9 |
| 20260509200024 | 93 | 201 | 0.9 | 4.3 | 0.00 | 0.00 | 0.00 | 34 | 1009.9 |
| 20260509194509 | 93 | 38 | 0.9 | 5.2 | 0.00 | 0.00 | 0.00 | 32 | 1010.2 |
| 20260509193028 | 93 | 208 | 0.9 | 5.2 | 0.00 | 0.00 | 0.00 | 33 | 1010.4 |
| 20260509191524 | 94 | 223 | 1.7 | 3.5 | 0.00 | 0.00 | 0.00 | 33 | 1010.6 |
| 20260509190022 | 92 | 220 | 1.7 | 5.2 | 0.00 | 0.00 | 0.00 | 35 | 1010.7 |
| 20260509184538 | 93 | 143 | 1.7 | 3.5 | 0.00 | 0.00 | 0.00 | 36 | 1010.8 |
| 20260509183011 | 92 | 79 | 1.7 | 7.0 | 0.00 | 0.00 | 0.00 | 37 | 1011.0 |
| 20260509181511 | 92 | 231 | 0.9 | 2.6 | 0.00 | 0.00 | 0.00 | 38 | 1011.2 |
| 20260509180016 | 91 | 336 | 0.9 | 5.2 | 0.00 | 0.00 | 0.00 | 37 | 1011.3 |
| 20260509174521 | 90 | 173 | 1.7 | 6.1 | 0.00 | 0.00 | 0.00 | 40 | 1011.7 |
| 20260509173022 | 90 | 147 | 0.9 | 5.2 | 0.00 | 0.00 | 0.00 | 42 | 1011.9 |
| 20260509171510 | 89 | 134 | 0.9 | 4.3 | 0.00 | 0.00 | 0.00 | 43 | 1012.1 |
| 20260509170015 | 89 | 252 | 0.0 | 3.5 | 0.00 | 0.00 | 0.00 | 45 | 1012.2 |
| 20260509164519 | 88 | 187 | 0.9 | 3.5 | 0.00 | 0.00 | 0.00 | 46 | 1012.3 |
| 20260509163025 | 87 | 233 | 0.9 | 4.3 | 0.00 | 0.00 | 0.00 | 47 | 1012.3 |
| 20260509161526 | 86 | 233 | 0.9 | 2.6 | 0.00 | 0.00 | 0.00 | 49 | 1012.4 |
| 20260509160012 | 85 | 124 | 0.9 | 1.7 | 0.00 | 0.00 | 0.00 | 52 | 1012.4 |
| 20260509154517 | 83 | 124 | 0.9 | 3.5 | 0.00 | 0.00 | 0.00 | 56 | 1012.3 |
| 20260509153030 | 81 | 293 | 0.9 | 2.6 | 0.00 | 0.00 | 0.00 | 59 | 1012.5 |
| 20260509151522 | 80 | 289 | 0.9 | 2.6 | 0.00 | 0.00 | 0.00 | 60 | 1012.6 |
| 20260509150031 | 80 | 235 | 0.9 | 2.6 | 0.00 | 0.00 | 0.00 | 63 | 1012.6 |
| 20260509144532 | 78 | 256 | 0.9 | 2.6 | 0.00 | 0.00 | 0.00 | 66 | 1012.7 |
| 20260509143020 | 76 | 232 | 0.9 | 3.5 | 0.00 | 0.00 | 0.00 | 69 | 1012.7 |
| 20260509141529 | 75 | 240 | 0.9 | 1.7 | 0.00 | 0.00 | 0.00 | 73 | 1012.7 |
| 20260509140024 | 73 | 246 | 0.9 | 2.6 | 0.00 | 0.00 | 0.00 | 77 | 1012.8 |
| 20260509134544 | 71 | 217 | 0.9 | 2.6 | 0.00 | 0.00 | 0.00 | 81 | 1012.8 |
| 20260509133026 | 68 | 255 | 0.0 | 0.9 | 0.00 | 0.00 | 0.00 | 85 | 1012.8 |
| 20260509131516 | 66 | 259 | 0.0 | 0.0 | 0.00 | 0.00 | 0.00 | 89 | 1012.7 |
| 20260509130004 | 65 | 248 | 0.0 | 0.0 | 0.00 | 0.00 | 0.00 | 89 | 1012.7 |
| 20260509124507 | 65 | 250 | 0.0 | 1.7 | 0.00 | 0.00 | 0.00 | 88 | 1012.4 |
| 20260509123009 | 64 | 259 | 0.0 | 2.6 | 0.00 | 0.00 | 0.00 | 89 | 1012.4 |
| 20260509121527 | 64 | 260 | 0.0 | 0.9 | 0.00 | 0.00 | 0.00 | 88 | 1012.1 |
| 20260509120020 | 64 | 163 | 0.0 | 1.7 | 0.00 | 0.00 | 0.00 | 88 | 1012.1 |
| 20260509114515 | 63 | 184 | 0.0 | 1.7 | 0.00 | 0.00 | 0.00 | 87 | 1011.8 |
| 20260509113012 | 63 | 238 | 0.0 | 0.0 | 0.00 | 0.00 | 0.00 | 86 | 1011.7 |
| 20260509111512 | 64 | 234 | 0.0 | 0.0 | 0.00 | 0.00 | 0.00 | 85 | 1011.6 |
| 20260509110014 | 64 | 201 | 0.0 | 2.6 | 0.00 | 0.00 | 0.00 | 85 | 1011.4 |
| 20260509104535 | 65 | 205 | 0.9 | 1.7 | 0.00 | 0.00 | 0.00 | 83 | 1011.4 |
| 20260509103005 | 65 | 173 | 0.9 | 1.7 | 0.00 | 0.00 | 0.00 | 81 | 1011.6 |
| 20260509101509 | 65 | 150 | 0.0 | 0.0 | 0.00 | 0.00 | 0.00 | 79 | 1011.4 |
| 20260509100012 | 66 | 156 | 0.0 | 2.6 | 0.00 | 0.00 | 0.00 | 78 | 1011.4 |
| 20260509094527 | 66 | 153 | 0.0 | 1.7 | 0.00 | 0.00 | 0.00 | 77 | 1011.6 |
| 20260509093020 | 66 | 208 | 0.0 | 4.3 | 0.00 | 0.00 | 0.00 | 76 | 1011.7 |
| 20260509091506 | 67 | 58 | 0.0 | 5.2 | 0.00 | 0.00 | 0.00 | 75 | 1011.8 |
| 20260509090010 | 67 | 150 | 0.0 | 2.6 | 0.00 | 0.00 | 0.00 | 75 | 1011.7 |
| 20260509084512 | 67 | 147 | 0.0 | 3.5 | 0.00 | 0.00 | 0.00 | 75 | 1011.9 |
| 20260509083018 | 67 | 136 | 0.9 | 6.1 | 0.00 | 0.00 | 0.00 | 76 | 1012.0 |
| 20260509081527 | 67 | 125 | 2.6 | 8.7 | 0.00 | 0.00 | 0.00 | 77 | 1012.2 |
| 20260509080007 | 68 | 205 | 0.9 | 6.1 | 0.00 | 0.00 | 0.00 | 78 | 1012.5 |
| 20260509074509 | 68 | 87 | 3.5 | 7.0 | 0.00 | 0.00 | 0.00 | 79 | 1012.4 |
| 20260509073016 | 69 | 98 | 3.5 | 10.4 | 0.00 | 0.00 | 0.00 | 83 | 1013.1 |